Time;durP1;ratioP1;P1;durP2;ratioP2;P2;SDS_P1;SDS_P2;PMS_P1;PMS_P2;Temp;Humidity;BMP_temperature;BMP_pressure;BME280_temperature;BME280_humidity;BME280_pressure;Samples;Min_cycle;Max_cycle;Signal;HPM_P1;HPM_P2
2022/08/05 00:01:44;;;;;;;12.95;6.20;;;21.50;99.90;;;;;;5051997;28;20680;-56
2022/08/05 00:04:09;;;;;;;11.77;6.22;;;21.50;99.90;;;;;;5054978;28;20288;-53
2022/08/05 00:06:35;;;;;;;11.27;5.72;;;21.50;99.90;;;;;;5053109;28;20276;-55
2022/08/05 00:09:01;;;;;;;11.32;4.85;;;21.50;99.90;;;;;;5034829;28;20342;-55
2022/08/05 00:11:27;;;;;;;7.22;3.78;;;21.50;99.90;;;;;;5049918;28;20241;-55
2022/08/05 00:13:53;;;;;;;12.77;4.20;;;21.50;99.90;;;;;;5048010;28;20191;-56
2022/08/05 00:16:19;;;;;;;7.63;3.65;;;21.50;99.90;;;;;;5036487;28;20618;-55
2022/08/05 00:18:47;;;;;;;8.38;3.60;;;21.40;99.90;;;;;;5043319;28;20205;-55
2022/08/05 00:21:14;;;;;;;11.13;3.90;;;21.40;99.90;;;;;;5024278;28;20270;-55
2022/08/05 00:23:42;;;;;;;13.05;3.92;;;21.40;99.90;;;;;;5034852;28;20565;-55
2022/08/05 00:26:08;;;;;;;9.38;3.58;;;21.40;99.90;;;;;;5038993;28;20197;-51
2022/08/05 00:28:35;;;;;;;10.35;3.50;;;21.40;99.90;;;;;;5049167;28;20647;-51
2022/08/05 00:31:01;;;;;;;8.50;4.07;;;21.40;99.90;;;;;;5037925;28;20180;-55
2022/08/05 00:33:27;;;;;;;7.63;3.28;;;21.40;99.90;;;;;;5035072;28;20531;-53
2022/08/05 00:35:53;;;;;;;8.00;3.20;;;21.30;99.90;;;;;;5043580;28;20343;-56
2022/08/05 00:38:19;;;;;;;9.93;3.50;;;21.30;99.90;;;;;;5050200;28;20266;-53
2022/08/05 00:40:51;;;;;;;10.18;4.38;;;21.30;99.90;;;;;;5042145;28;20279;-55
2022/08/05 00:43:16;;;;;;;11.68;4.53;;;21.20;99.90;;;;;;5034102;28;20243;-55
2022/08/05 00:45:43;;;;;;;10.40;5.28;;;21.20;99.90;;;;;;5037113;28;20694;-56
2022/08/05 00:48:14;;;;;;;10.15;3.60;;;21.20;99.90;;;;;;5033466;28;20179;-52
2022/08/05 00:50:42;;;;;;;11.88;4.50;;;21.20;99.90;;;;;;5044459;28;20183;-54
2022/08/05 00:53:08;;;;;;;10.55;4.45;;;21.20;99.90;;;;;;5039651;28;20270;-54
2022/08/05 00:55:34;;;;;;;8.18;3.30;;;21.20;99.90;;;;;;5045194;28;20270;-55
2022/08/05 00:58:00;;;;;;;6.50;3.30;;;21.10;99.90;;;;;;5041710;28;20715;-54
2022/08/05 01:00:27;;;;;;;7.15;3.30;;;21.10;99.90;;;;;;5040280;28;20188;-54
2022/08/05 01:02:54;;;;;;;7.40;3.28;;;21.00;99.90;;;;;;5039061;28;20702;-56
2022/08/05 01:05:20;;;;;;;12.00;3.53;;;21.00;99.90;;;;;;5041333;28;20241;-56
2022/08/05 01:07:46;;;;;;;10.35;4.10;;;21.00;99.90;;;;;;5054052;28;20544;-56
2022/08/05 01:10:15;;;;;;;8.75;3.58;;;20.90;99.90;;;;;;5014819;28;20254;-56
2022/08/05 01:12:46;;;;;;;10.02;3.80;;;20.90;99.90;;;;;;5021226;28;20611;-59
2022/08/05 01:15:16;;;;;;;10.95;4.82;;;20.80;99.90;;;;;;5022776;28;20180;-55
2022/08/05 01:17:50;;;;;;;9.70;4.70;;;20.80;99.90;;;;;;5034755;28;20603;-58
2022/08/05 01:20:27;;;;;;;12.10;5.50;;;20.80;99.90;;;;;;5033279;28;20176;-58
2022/08/05 01:23:22;;;;;;;9.55;5.50;;;20.80;99.90;;;;;;5016938;28;20215;-52
2022/08/05 01:25:59;;;;;;;9.52;3.50;;;20.80;99.90;;;;;;5039091;28;20219;-54
2022/08/05 01:28:45;;;;;;;12.40;3.58;;;20.70;99.90;;;;;;5053240;28;20175;-54
2022/08/05 01:31:25;;;;;;;9.32;3.50;;;20.70;99.90;;;;;;5051244;28;20634;-55
2022/08/05 01:34:00;;;;;;;12.02;3.30;;;20.70;99.90;;;;;;5047614;28;20261;-60
2022/08/05 01:36:31;;;;;;;10.55;3.63;;;20.70;99.90;;;;;;5041718;28;20601;-53
2022/08/05 01:38:58;;;;;;;9.57;3.30;;;20.70;99.90;;;;;;5042255;28;20183;-52
2022/08/05 01:41:26;;;;;;;13.52;3.60;;;20.70;99.90;;;;;;5047984;28;20194;-52
2022/08/05 01:43:53;;;;;;;8.18;3.53;;;20.60;99.90;;;;;;5019874;28;20667;-55
2022/08/05 01:46:21;;;;;;;9.82;3.40;;;20.60;99.90;;;;;;5050375;28;20269;-54
2022/08/05 01:48:48;;;;;;;7.97;2.92;;;20.60;99.90;;;;;;5045755;28;20270;-54
2022/08/05 01:51:15;;;;;;;9.35;3.30;;;20.60;99.90;;;;;;5035749;28;20279;-54
2022/08/05 01:53:45;;;;;;;8.68;3.17;;;20.60;99.90;;;;;;5039874;28;20530;-53
2022/08/05 01:56:14;;;;;;;10.55;3.25;;;20.60;99.90;;;;;;5049590;28;20183;-53
2022/08/05 01:58:43;;;;;;;10.90;3.20;;;20.60;99.90;;;;;;5052449;28;20706;-54
2022/08/05 02:01:12;;;;;;;8.65;3.10;;;20.60;99.90;;;;;;5049304;28;20670;-55
2022/08/05 02:03:42;;;;;;;6.57;2.85;;;20.50;99.90;;;;;;5035488;28;20222;-52
2022/08/05 02:06:09;;;;;;;6.97;2.70;;;20.50;99.90;;;;;;5032885;28;20180;-56
2022/08/05 02:08:36;;;;;;;9.80;3.03;;;20.50;99.90;;;;;;5039885;28;20190;-54
2022/08/05 02:11:06;;;;;;;10.05;2.90;;;20.40;99.90;;;;;;5038640;28;20231;-54
2022/08/05 02:13:39;;;;;;;8.73;2.92;;;20.40;99.90;;;;;;5037297;28;20180;-55
2022/08/05 02:16:14;;;;;;;5.90;2.95;;;20.40;99.90;;;;;;5050623;28;20639;-53
2022/08/05 02:18:49;;;;;;;12.27;2.70;;;20.40;99.90;;;;;;5050906;28;20223;-53
2022/08/05 02:21:18;;;;;;;7.35;3.13;;;20.30;99.90;;;;;;5050604;28;20181;-56
2022/08/05 02:23:48;;;;;;;6.63;2.60;;;20.30;99.90;;;;;;5033560;28;20207;-55
2022/08/05 02:26:20;;;;;;;9.43;2.70;;;20.30;99.90;;;;;;5045314;28;20186;-55
2022/08/05 02:28:47;;;;;;;5.07;2.50;;;20.30;99.90;;;;;;5043603;28;20183;-52
2022/08/05 02:31:18;;;;;;;6.63;2.53;;;20.30;99.90;;;;;;5046641;28;20703;-49
2022/08/05 02:33:49;;;;;;;8.02;2.50;;;20.30;99.90;;;;;;5052431;28;20171;-54
2022/08/05 02:36:19;;;;;;;7.03;2.47;;;20.30;99.90;;;;;;5050431;28;20225;-54
2022/08/05 02:38:46;;;;;;;11.13;2.92;;;20.20;99.90;;;;;;5044277;28;20253;-55
2022/08/05 02:41:14;;;;;;;9.40;2.90;;;20.20;99.90;;;;;;5043245;28;20183;-53
2022/08/05 02:43:42;;;;;;;6.75;2.72;;;20.20;99.90;;;;;;5053975;28;20217;-55
2022/08/05 02:46:08;;;;;;;7.10;3.50;;;20.10;99.90;;;;;;5034630;28;20195;-53
2022/08/05 02:48:36;;;;;;;7.63;3.17;;;20.10;99.90;;;;;;5037071;28;20184;-54
2022/08/05 02:51:03;;;;;;;8.43;2.80;;;20.10;99.90;;;;;;5046929;28;20608;-55
2022/08/05 02:53:31;;;;;;;5.43;2.92;;;20.00;99.90;;;;;;5039412;28;20216;-54
2022/08/05 02:55:57;;;;;;;8.43;3.05;;;20.00;99.90;;;;;;5049973;28;20274;-55
2022/08/05 02:58:24;;;;;;;4.07;2.80;;;20.00;99.90;;;;;;5039521;28;20179;-53
2022/08/05 03:00:54;;;;;;;5.20;2.88;;;19.90;99.90;;;;;;5049490;28;20206;-54
2022/08/05 03:03:20;;;;;;;11.73;3.08;;;19.90;99.90;;;;;;5020057;28;20211;-54
2022/08/05 03:05:48;;;;;;;5.63;3.20;;;19.90;99.90;;;;;;5048659;28;20191;-53
2022/08/05 03:08:15;;;;;;;4.80;2.35;;;19.80;99.90;;;;;;5053146;28;20184;-52
2022/08/05 03:10:42;;;;;;;5.32;2.60;;;19.90;99.90;;;;;;5046166;28;20219;-51
2022/08/05 03:13:16;;;;;;;4.95;2.20;;;19.80;99.90;;;;;;5038108;28;20550;-54
2022/08/05 03:15:44;;;;;;;6.07;2.55;;;19.80;99.90;;;;;;5044209;28;20191;-57
2022/08/05 03:18:10;;;;;;;5.13;2.30;;;19.80;99.90;;;;;;5039700;28;20184;-50
2022/08/05 03:20:36;;;;;;;5.05;2.70;;;19.80;99.90;;;;;;5039746;28;20647;-53
2022/08/05 03:23:07;;;;;;;4.13;2.17;;;19.80;99.90;;;;;;5040033;28;20295;-54
2022/08/05 03:25:37;;;;;;;4.28;1.90;;;19.80;99.90;;;;;;5047460;28;20198;-54
2022/08/05 03:28:05;;;;;;;6.78;2.30;;;19.80;99.90;;;;;;5044420;28;20187;-57
2022/08/05 03:30:33;;;;;;;6.40;2.28;;;19.70;99.90;;;;;;5037118;28;20813;-53
2022/08/05 03:33:04;;;;;;;4.05;2.20;;;19.70;99.90;;;;;;5055793;28;20187;-51
2022/08/05 03:35:31;;;;;;;4.47;2.20;;;19.70;99.90;;;;;;5047956;28;20192;-53
2022/08/05 03:38:01;;;;;;;4.97;2.20;;;19.70;99.90;;;;;;5035869;28;20188;-55
2022/08/05 03:40:27;;;;;;;4.82;2.00;;;19.70;99.90;;;;;;5041152;28;20179;-54
2022/08/05 03:42:53;;;;;;;4.68;2.22;;;19.70;99.90;;;;;;5036874;28;20291;-55
2022/08/05 03:45:19;;;;;;;5.72;2.30;;;19.70;99.90;;;;;;5039324;28;20632;-53
2022/08/05 03:47:45;;;;;;;4.80;2.10;;;19.60;99.90;;;;;;5055463;28;20175;-54
2022/08/05 03:50:12;;;;;;;7.30;2.25;;;19.60;99.90;;;;;;5053225;28;20206;-51
2022/08/05 03:52:49;;;;;;;4.32;2.00;;;19.60;99.90;;;;;;5043886;28;20195;-53
2022/08/05 03:55:22;;;;;;;6.95;2.10;;;19.50;99.90;;;;;;5036132;28;20309;-54
2022/08/05 03:57:51;;;;;;;4.80;2.08;;;19.50;99.90;;;;;;5043477;28;20184;-53
2022/08/05 04:00:24;;;;;;;7.07;2.10;;;19.50;99.90;;;;;;5040754;28;20186;-52
2022/08/05 04:02:51;;;;;;;4.75;1.83;;;19.40;99.90;;;;;;5042557;28;20206;-54
2022/08/05 04:05:18;;;;;;;6.07;1.98;;;19.40;99.90;;;;;;5031342;28;20191;-51
2022/08/05 04:07:44;;;;;;;3.38;1.88;;;19.40;99.90;;;;;;5045540;28;20266;-53
2022/08/05 04:10:10;;;;;;;4.70;2.38;;;19.40;99.90;;;;;;5051710;28;20187;-55
2022/08/05 04:12:36;;;;;;;4.72;1.70;;;19.30;99.90;;;;;;5049750;28;20184;-53
2022/08/05 04:15:02;;;;;;;6.43;2.22;;;19.30;99.90;;;;;;5035128;28;20230;-53
2022/08/05 04:17:28;;;;;;;6.80;2.08;;;19.30;99.90;;;;;;5034529;28;20183;-54
2022/08/05 04:19:55;;;;;;;3.35;1.80;;;19.30;99.90;;;;;;5051439;28;20662;-54
2022/08/05 04:22:20;;;;;;;6.00;1.98;;;19.30;99.90;;;;;;5047816;28;20198;-50
2022/08/05 04:24:47;;;;;;;3.22;1.85;;;19.20;99.90;;;;;;5044985;28;20281;-55
2022/08/05 04:27:13;;;;;;;6.22;2.10;;;19.20;99.90;;;;;;5054442;28;20214;-55
2022/08/05 04:29:39;;;;;;;4.47;1.90;;;19.20;99.90;;;;;;5040326;28;20663;-55
2022/08/05 04:32:06;;;;;;;5.30;2.00;;;19.20;99.90;;;;;;5046562;28;20188;-56
2022/08/05 04:34:32;;;;;;;6.10;2.28;;;19.20;99.90;;;;;;5035710;28;20192;-54
2022/08/05 04:36:58;;;;;;;4.55;1.98;;;19.20;99.90;;;;;;5034169;28;20524;-55
2022/08/05 04:39:24;;;;;;;4.28;2.10;;;19.10;99.90;;;;;;5033133;28;20191;-54
2022/08/05 04:41:50;;;;;;;4.45;2.00;;;19.10;99.90;;;;;;5051151;28;20191;-57
2022/08/05 04:44:16;;;;;;;4.70;1.95;;;19.10;99.90;;;;;;5049304;28;20585;-54
2022/08/05 04:46:42;;;;;;;4.63;2.20;;;19.10;99.90;;;;;;5018835;28;20192;-58
2022/08/05 04:49:08;;;;;;;4.18;1.90;;;19.10;99.90;;;;;;5038592;28;20222;-51
2022/08/05 04:51:33;;;;;;;4.55;2.08;;;19.10;99.90;;;;;;5043236;28;20762;-52
2022/08/05 04:53:59;;;;;;;6.60;2.10;;;19.10;99.90;;;;;;5033697;28;20195;-52
2022/08/05 04:56:25;;;;;;;4.22;2.00;;;19.10;99.90;;;;;;5027357;28;20266;-50
2022/08/05 04:58:51;;;;;;;4.57;2.30;;;19.10;99.90;;;;;;5053709;28;20649;-55
2022/08/05 05:01:17;;;;;;;7.65;2.13;;;19.10;99.90;;;;;;5050007;28;20187;-55
2022/08/05 05:03:43;;;;;;;5.90;2.15;;;19.10;99.90;;;;;;5053579;28;20290;-57
2022/08/05 05:06:12;;;;;;;5.22;2.10;;;19.10;99.90;;;;;;5048885;28;20183;-54
2022/08/05 05:08:39;;;;;;;5.28;2.08;;;19.10;99.90;;;;;;5037706;28;20650;-54
2022/08/05 05:11:05;;;;;;;6.63;2.20;;;19.10;99.90;;;;;;5035859;28;20265;-53
2022/08/05 05:13:31;;;;;;;3.90;2.15;;;19.10;99.90;;;;;;5044730;28;20175;-51
2022/08/05 05:15:57;;;;;;;5.97;2.20;;;19.00;99.90;;;;;;5023784;28;20198;-51
2022/08/05 05:18:23;;;;;;;4.38;2.05;;;19.00;99.90;;;;;;5052105;28;20175;-51
2022/08/05 05:20:49;;;;;;;3.75;2.00;;;19.10;99.90;;;;;;5045374;28;20189;-52
2022/08/05 05:23:16;;;;;;;5.65;2.30;;;19.10;99.90;;;;;;5041018;28;20207;-51
2022/08/05 05:25:42;;;;;;;4.93;2.05;;;19.10;99.90;;;;;;5047541;28;20281;-53
2022/08/05 05:28:10;;;;;;;6.55;2.20;;;19.10;99.90;;;;;;5052408;28;20201;-49
2022/08/05 05:30:37;;;;;;;6.68;2.25;;;19.10;99.90;;;;;;5051205;28;20301;-54
2022/08/05 05:33:04;;;;;;;6.22;1.98;;;19.20;99.90;;;;;;5039940;28;20188;-51
2022/08/05 05:35:31;;;;;;;5.18;2.20;;;19.20;99.90;;;;;;5017617;28;20535;-53
2022/08/05 05:37:59;;;;;;;3.20;1.77;;;19.20;99.90;;;;;;5038383;28;21151;-53
2022/08/05 05:40:26;;;;;;;7.60;2.08;;;19.30;99.90;;;;;;5038199;28;20342;-53
2022/08/05 05:42:53;;;;;;;5.07;2.40;;;19.30;99.90;;;;;;5032884;28;20218;-50
2022/08/05 05:45:19;;;;;;;10.23;3.00;;;19.30;99.90;;;;;;5038430;28;20211;-52
2022/08/05 05:47:46;;;;;;;6.78;2.50;;;19.40;99.90;;;;;;5051072;28;20186;-53
2022/08/05 05:50:15;;;;;;;11.85;2.00;;;19.40;99.90;;;;;;5045308;28;20172;-54
2022/08/05 05:52:42;;;;;;;6.43;2.30;;;19.40;99.90;;;;;;5032416;28;20187;-54
2022/08/05 05:55:12;;;;;;;6.53;2.05;;;19.50;99.90;;;;;;5036358;28;20178;-60
2022/08/05 05:57:40;;;;;;;6.38;1.85;;;19.50;99.90;;;;;;5037830;28;20210;-54
2022/08/05 06:00:08;;;;;;;8.38;1.63;;;19.50;99.90;;;;;;5044750;28;20187;-56
2022/08/05 06:02:40;;;;;;;3.60;1.60;;;19.50;99.90;;;;;;5039776;28;20634;-53
2022/08/05 06:05:08;;;;;;;7.72;1.95;;;19.50;99.90;;;;;;5039447;28;20270;-51
2022/08/05 06:07:34;;;;;;;6.47;1.95;;;19.50;99.90;;;;;;5052509;28;20558;-53
2022/08/05 06:09:59;;;;;;;3.50;1.70;;;19.60;99.90;;;;;;5043648;28;20236;-59
2022/08/05 06:12:26;;;;;;;4.63;1.67;;;19.60;99.90;;;;;;5053172;28;20254;-53
2022/08/05 06:14:52;;;;;;;4.60;2.20;;;19.70;99.90;;;;;;5014380;28;20589;-53
2022/08/05 06:17:18;;;;;;;3.45;1.65;;;19.70;99.90;;;;;;5028196;28;20188;-53
2022/08/05 06:19:44;;;;;;;7.13;1.70;;;19.80;99.90;;;;;;5031531;28;20187;-53
2022/08/05 06:22:10;;;;;;;4.05;1.50;;;19.90;99.90;;;;;;5051169;28;20223;-53
2022/08/05 06:24:40;;;;;;;5.57;1.23;;;19.90;99.90;;;;;;5051816;28;20569;-53
2022/08/05 06:27:06;;;;;;;2.65;1.45;;;20.00;99.90;;;;;;5052043;28;20185;-53
2022/08/05 06:29:35;;;;;;;5.47;1.50;;;20.10;99.90;;;;;;5036232;28;20710;-55
2022/08/05 06:32:00;;;;;;;4.82;1.65;;;20.20;99.90;;;;;;5051728;28;20235;-53
2022/08/05 06:34:26;;;;;;;5.53;1.58;;;20.30;99.90;;;;;;5049859;28;20685;-54
2022/08/05 06:36:52;;;;;;;4.00;1.73;;;20.30;99.90;;;;;;5036197;28;20198;-49
2022/08/05 06:39:19;;;;;;;4.68;1.40;;;20.40;99.90;;;;;;5026839;28;20191;-56
2022/08/05 06:41:45;;;;;;;5.65;1.40;;;20.50;99.90;;;;;;5050291;28;20196;-51
2022/08/05 06:44:11;;;;;;;4.55;1.67;;;20.60;99.90;;;;;;5015020;28;20217;-53
2022/08/05 06:46:38;;;;;;;7.75;1.50;;;20.60;99.90;;;;;;5045982;28;20589;-48
2022/08/05 06:49:04;;;;;;;5.43;1.60;;;20.70;99.90;;;;;;5052866;28;20190;-54
2022/08/05 06:51:30;;;;;;;4.05;1.50;;;20.80;99.90;;;;;;5003252;28;20551;-53
2022/08/05 06:54:00;;;;;;;3.65;1.30;;;20.80;99.50;;;;;;5042381;28;20299;-50
2022/08/05 06:56:27;;;;;;;6.75;1.63;;;20.90;99.60;;;;;;5024251;28;20183;-55
2022/08/05 06:58:54;;;;;;;3.35;1.50;;;20.90;99.40;;;;;;5021449;28;20323;-58
2022/08/05 07:01:19;;;;;;;5.65;1.30;;;21.00;99.40;;;;;;5032610;28;20206;-52
2022/08/05 07:03:45;;;;;;;4.90;1.25;;;21.00;99.00;;;;;;5034623;28;20235;-56
2022/08/05 07:06:11;;;;;;;3.60;1.30;;;21.00;98.60;;;;;;5023106;28;20191;-52
2022/08/05 07:08:36;;;;;;;4.85;2.10;;;21.00;98.40;;;;;;5046357;28;20662;-52
2022/08/05 07:11:04;;;;;;;3.28;1.60;;;21.00;98.30;;;;;;5042175;28;20256;-55
2022/08/05 07:19:02;;;;;;;6.40;1.95;;;21.10;97.50;;;;;;5033034;28;20191;-55
2022/08/05 07:21:28;;;;;;;7.10;1.65;;;21.10;97.10;;;;;;5022077;28;20692;-56
2022/08/05 07:23:54;;;;;;;3.53;1.27;;;21.10;96.10;;;;;;5051533;28;20231;-56
2022/08/05 07:26:19;;;;;;;3.72;1.23;;;21.00;94.40;;;;;;5031692;28;20682;-55
2022/08/05 07:28:45;;;;;;;2.92;1.35;;;21.00;93.40;;;;;;5042791;28;20194;-56
2022/08/05 07:31:11;;;;;;;4.50;1.10;;;21.00;92.60;;;;;;5036268;28;20282;-56
2022/08/05 07:33:36;;;;;;;3.85;1.17;;;21.00;91.90;;;;;;5053909;28;20192;-56
2022/08/05 07:36:03;;;;;;;4.63;1.10;;;21.00;90.90;;;;;;5052975;28;20191;-57
2022/08/05 07:38:29;;;;;;;5.25;1.10;;;21.00;90.40;;;;;;5043538;28;20209;-54
2022/08/05 07:40:55;;;;;;;3.22;1.00;;;21.00;90.20;;;;;;5053017;28;20639;-58
2022/08/05 07:43:20;;;;;;;3.65;1.10;;;21.10;88.90;;;;;;5039068;28;20218;-55
2022/08/05 07:45:46;;;;;;;4.63;1.02;;;21.10;87.20;;;;;;5035479;28;20250;-55
2022/08/05 07:48:12;;;;;;;1.80;1.05;;;21.10;86.00;;;;;;5033704;28;20180;-60
2022/08/05 07:50:38;;;;;;;3.85;1.05;;;21.10;85.00;;;;;;5018540;28;20200;-54
2022/08/05 07:53:04;;;;;;;2.80;0.90;;;21.20;82.20;;;;;;5017853;28;20650;-61
2022/08/05 07:55:30;;;;;;;2.60;0.82;;;21.20;81.50;;;;;;5024459;28;20241;-55
2022/08/05 07:57:56;;;;;;;2.40;0.88;;;21.20;79.80;;;;;;5051422;28;20187;-57
2022/08/05 08:00:24;;;;;;;3.13;1.20;;;21.20;81.00;;;;;;5041818;28;20267;-53
2022/08/05 08:02:50;;;;;;;3.40;0.90;;;21.20;81.20;;;;;;5053980;28;20219;-56
2022/08/05 08:05:16;;;;;;;3.45;1.10;;;21.20;80.20;;;;;;5053357;28;20237;-55
2022/08/05 08:07:42;;;;;;;2.92;1.10;;;21.20;80.00;;;;;;5055219;28;20175;-55
2022/08/05 08:10:07;;;;;;;7.45;0.90;;;21.20;80.30;;;;;;5047418;28;20762;-56
2022/08/05 08:12:34;;;;;;;3.60;1.20;;;21.30;80.40;;;;;;5038302;28;20187;-56
2022/08/05 08:15:00;;;;;;;5.00;1.00;;;21.30;80.30;;;;;;5051209;28;20188;-57
2022/08/05 08:17:25;;;;;;;5.63;1.20;;;21.30;80.60;;;;;;5017341;28;20548;-56
2022/08/05 08:19:51;;;;;;;3.65;0.90;;;21.40;81.40;;;;;;5035759;28;20656;-57
2022/08/05 08:22:17;;;;;;;5.97;1.30;;;21.40;82.30;;;;;;5039128;28;20198;-56
2022/08/05 08:24:43;;;;;;;5.18;1.10;;;21.40;82.60;;;;;;5032417;28;20286;-56
2022/08/05 08:27:08;;;;;;;6.10;1.52;;;21.50;82.60;;;;;;5054039;28;20285;-58
2022/08/05 08:29:34;;;;;;;7.72;1.10;;;21.50;82.40;;;;;;5039382;28;20644;-61
2022/08/05 08:32:00;;;;;;;4.78;1.98;;;21.60;81.30;;;;;;5052754;28;20645;-55
2022/08/05 08:34:26;;;;;;;3.28;1.10;;;21.60;79.90;;;;;;5035105;28;20188;-56
2022/08/05 08:36:54;;;;;;;3.97;1.27;;;21.60;78.70;;;;;;5034699;28;20278;-58
2022/08/05 08:39:22;;;;;;;2.85;1.15;;;21.60;76.90;;;;;;5038611;28;20276;-56
2022/08/05 08:41:48;;;;;;;5.90;1.00;;;21.60;75.90;;;;;;5049518;28;20253;-52
2022/08/05 08:44:19;;;;;;;2.67;1.33;;;21.60;75.10;;;;;;5051315;28;20214;-56
2022/08/05 08:46:47;;;;;;;1.45;0.90;;;21.60;73.80;;;;;;5050745;28;20619;-54
2022/08/05 08:49:14;;;;;;;4.32;0.90;;;21.60;72.50;;;;;;5054676;28;20207;-57
2022/08/05 08:51:41;;;;;;;4.38;1.13;;;21.50;71.30;;;;;;5048447;28;20191;-58
2022/08/05 08:54:09;;;;;;;2.10;1.00;;;21.50;71.40;;;;;;5035330;28;20188;-59
2022/08/05 08:56:37;;;;;;;2.50;1.10;;;21.50;71.00;;;;;;5045622;28;20187;-58
2022/08/05 08:59:04;;;;;;;2.28;1.10;;;21.50;70.20;;;;;;5033084;28;20190;-60
2022/08/05 09:01:31;;;;;;;2.00;0.90;;;21.50;69.30;;;;;;5047285;28;20191;-52
2022/08/05 09:03:59;;;;;;;1.83;1.05;;;21.50;68.30;;;;;;5054256;28;20238;-53
2022/08/05 09:06:27;;;;;;;5.03;2.08;;;21.50;65.50;;;;;;5038780;28;20199;-50
2022/08/05 09:08:53;;;;;;;5.85;1.67;;;21.40;65.20;;;;;;5034614;28;20185;-57
2022/08/05 09:11:19;;;;;;;2.08;1.10;;;21.30;64.70;;;;;;5042067;28;20334;-56
2022/08/05 09:13:45;;;;;;;4.65;1.35;;;21.30;65.20;;;;;;5034312;28;20184;-56
2022/08/05 09:16:12;;;;;;;3.35;1.15;;;21.20;66.80;;;;;;5041105;28;20546;-56
2022/08/05 09:18:38;;;;;;;3.47;1.23;;;21.20;67.80;;;;;;5033922;28;20207;-56
2022/08/05 09:21:04;;;;;;;3.65;1.05;;;21.20;68.00;;;;;;5043931;28;20344;-54
2022/08/05 09:23:30;;;;;;;2.58;1.08;;;21.10;69.20;;;;;;5049468;28;20211;-55
2022/08/05 09:26:08;;;;;;;4.38;1.30;;;21.10;70.10;;;;;;5023238;28;20184;-58
2022/08/05 09:28:36;;;;;;;3.63;1.40;;;21.10;71.20;;;;;;5033108;28;20176;-56
2022/08/05 09:31:07;;;;;;;4.13;1.50;;;21.10;72.00;;;;;;5025134;28;20183;-55
2022/08/05 09:33:57;;;;;;;5.95;1.70;;;21.00;72.80;;;;;;5038593;28;20187;-55
2022/08/05 09:36:23;;;;;;;6.10;1.50;;;21.10;73.90;;;;;;5044706;28;20179;-56
2022/08/05 09:39:02;;;;;;;3.35;1.23;;;21.10;74.60;;;;;;5026923;28;20195;-55
2022/08/05 09:41:28;;;;;;;4.90;1.10;;;21.10;74.60;;;;;;5036985;28;20183;-55
2022/08/05 09:43:54;;;;;;;2.17;1.20;;;21.10;75.20;;;;;;5033091;28;20601;-56
2022/08/05 09:46:31;;;;;;;3.70;1.50;;;21.00;75.90;;;;;;5046094;28;20187;-56
2022/08/05 09:48:59;;;;;;;3.75;1.25;;;21.00;77.20;;;;;;5044009;28;20535;-55
2022/08/05 09:51:41;;;;;;;4.00;1.33;;;21.00;78.40;;;;;;5029234;28;20194;-56
2022/08/05 09:54:07;;;;;;;2.97;1.40;;;21.00;79.60;;;;;;5052638;28;20183;-56
2022/08/05 09:56:36;;;;;;;5.72;1.30;;;21.00;80.70;;;;;;5030579;28;20187;-56
2022/08/05 09:59:06;;;;;;;5.05;2.40;;;21.00;81.40;;;;;;5033993;28;20188;-55
2022/08/05 10:01:35;;;;;;;3.15;1.10;;;21.00;81.70;;;;;;5032505;28;20218;-55
2022/08/05 10:04:12;;;;;;;1.50;0.90;;;21.00;80.80;;;;;;5032579;28;20568;-60
2022/08/05 10:06:52;;;;;;;2.05;0.93;;;21.10;80.40;;;;;;5033514;28;20712;-56
2022/08/05 10:09:22;;;;;;;1.88;1.02;;;21.00;79.70;;;;;;5013929;28;20194;-56
2022/08/05 10:11:49;;;;;;;3.80;0.93;;;21.00;80.20;;;;;;5026871;28;20314;-55
2022/08/05 10:14:28;;;;;;;3.35;0.80;;;21.10;80.40;;;;;;5030007;28;20183;-57
2022/08/05 10:16:55;;;;;;;2.50;0.90;;;21.10;80.30;;;;;;5046291;28;20187;-57
2022/08/05 10:19:23;;;;;;;6.70;1.00;;;21.20;80.60;;;;;;5032857;28;20386;-57
2022/08/05 10:21:49;;;;;;;4.90;0.90;;;21.20;80.50;;;;;;5032725;28;20191;-57
2022/08/05 10:24:19;;;;;;;3.88;0.80;;;21.20;80.80;;;;;;5052718;28;20260;-55
2022/08/05 10:26:48;;;;;;;2.00;0.80;;;21.20;81.20;;;;;;5050346;28;20187;-55
2022/08/05 10:29:14;;;;;;;2.67;0.82;;;21.20;80.80;;;;;;5032549;28;20206;-58
2022/08/05 10:31:40;;;;;;;1.50;0.80;;;21.20;79.60;;;;;;5049236;28;20202;-55
2022/08/05 10:34:08;;;;;;;5.28;0.93;;;21.10;79.50;;;;;;5044779;28;20188;-55
2022/08/05 10:36:36;;;;;;;4.00;0.93;;;21.10;80.40;;;;;;5047529;28;20182;-52
2022/08/05 10:39:11;;;;;;;4.97;0.80;;;21.10;81.30;;;;;;5041165;28;20656;-57
2022/08/05 10:42:01;;;;;;;1.85;0.80;;;21.10;82.20;;;;;;5033700;28;20702;-56
2022/08/05 10:44:29;;;;;;;3.33;0.80;;;21.10;82.60;;;;;;5031949;28;20278;-53
2022/08/05 10:46:55;;;;;;;4.05;1.00;;;21.20;82.60;;;;;;5049734;28;20191;-55
2022/08/05 10:49:24;;;;;;;5.45;0.90;;;21.20;82.30;;;;;;5042738;28;20180;-53
2022/08/05 10:52:43;;;;;;;4.30;1.10;;;21.20;82.60;;;;;;5047399;28;20186;-55
2022/08/05 10:55:12;;;;;;;5.20;1.05;;;21.20;83.30;;;;;;5009404;28;20616;-54
2022/08/05 10:57:43;;;;;;;4.35;0.75;;;21.30;83.10;;;;;;5030381;28;20254;-57
2022/08/05 11:00:20;;;;;;;3.30;0.82;;;21.40;82.70;;;;;;5035286;28;20176;-53
2022/08/05 11:03:04;;;;;;;4.28;0.98;;;21.40;82.80;;;;;;5035377;28;20206;-55
2022/08/05 11:05:31;;;;;;;2.58;1.00;;;21.40;82.90;;;;;;5033892;28;20192;-56
2022/08/05 11:08:01;;;;;;;2.38;0.90;;;21.50;83.00;;;;;;5049591;28;20187;-56
2022/08/05 11:10:28;;;;;;;5.25;2.33;;;21.60;82.70;;;;;;5046580;28;20227;-49
2022/08/05 11:12:54;;;;;;;5.43;1.48;;;21.70;82.30;;;;;;5043869;28;20293;-52
2022/08/05 11:15:33;;;;;;;3.00;0.70;;;21.80;82.10;;;;;;5035651;28;20186;-52
2022/08/05 11:18:34;;;;;;;4.07;0.98;;;21.90;81.00;;;;;;5056010;28;20249;-53
2022/08/05 11:21:04;;;;;;;3.67;1.17;;;21.90;80.60;;;;;;5019617;28;20622;-58
2022/08/05 11:23:52;;;;;;;3.58;1.20;;;22.00;80.70;;;;;;5044770;28;20298;-66
2022/08/05 11:26:18;;;;;;;2.63;1.00;;;22.00;80.90;;;;;;5034321;28;20194;-58
2022/08/05 11:28:49;;;;;;;2.78;0.95;;;22.00;79.90;;;;;;5035021;28;20682;-57
2022/08/05 11:31:14;;;;;;;2.65;0.90;;;22.00;77.50;;;;;;5046226;28;20183;-52
2022/08/05 11:33:53;;;;;;;4.60;1.20;;;22.00;77.30;;;;;;5037177;28;20210;-51
2022/08/05 11:36:38;;;;;;;3.38;1.08;;;22.10;77.30;;;;;;5038220;28;20179;-53
2022/08/05 11:39:04;;;;;;;2.58;0.80;;;22.10;77.40;;;;;;5027870;28;20183;-55
2022/08/05 11:41:34;;;;;;;3.78;0.90;;;22.10;77.70;;;;;;5051668;28;20187;-51
2022/08/05 11:44:13;;;;;;;2.22;0.82;;;22.10;78.00;;;;;;5036719;28;20667;-50
2022/08/05 11:46:53;;;;;;;3.03;0.95;;;22.20;76.20;;;;;;5042131;28;20187;-51
2022/08/05 11:49:21;;;;;;;2.20;0.90;;;22.30;75.70;;;;;;5056247;28;20163;-48
2022/08/05 11:51:48;;;;;;;4.18;0.80;;;22.40;75.30;;;;;;5036109;28;20230;-50
2022/08/05 11:54:23;;;;;;;2.83;1.00;;;22.50;74.70;;;;;;5035536;28;20215;-51
2022/08/05 11:56:51;;;;;;;5.82;0.70;;;22.60;74.00;;;;;;5034861;28;20175;-49
2022/08/05 11:59:22;;;;;;;3.42;0.90;;;22.70;73.10;;;;;;5034273;28;20282;-52
2022/08/05 12:02:01;;;;;;;2.13;0.60;;;22.60;71.40;;;;;;5037775;28;20647;-52
2022/08/05 12:04:36;;;;;;;3.08;1.00;;;22.50;71.40;;;;;;5050352;28;20612;-53
2022/08/05 12:07:02;;;;;;;2.53;0.80;;;22.50;72.20;;;;;;5054021;28;20190;-53
2022/08/05 12:09:29;;;;;;;3.88;1.00;;;22.50;71.80;;;;;;5055428;28;20273;-50
2022/08/05 12:11:55;;;;;;;2.35;0.70;;;22.60;71.50;;;;;;5035626;28;20297;-53
2022/08/05 12:14:21;;;;;;;3.00;0.90;;;22.60;72.10;;;;;;5052752;28;20245;-48
2022/08/05 12:16:47;;;;;;;4.25;1.20;;;22.70;73.10;;;;;;5035502;28;20555;-53
2022/08/05 12:19:14;;;;;;;2.83;1.00;;;22.80;73.90;;;;;;5017613;28;20249;-52
2022/08/05 12:21:45;;;;;;;4.28;1.00;;;23.00;73.30;;;;;;5035062;28;20184;-52
2022/08/05 12:24:16;;;;;;;3.95;0.73;;;23.10;72.50;;;;;;5050327;28;20603;-50
2022/08/05 12:26:49;;;;;;;3.25;0.70;;;23.30;71.20;;;;;;5050870;28;20215;-53
2022/08/05 12:29:20;;;;;;;4.18;0.73;;;23.40;70.50;;;;;;5042009;28;20632;-54
2022/08/05 12:31:54;;;;;;;2.38;0.85;;;23.30;70.00;;;;;;5051291;28;20183;-55
2022/08/05 12:34:27;;;;;;;2.45;0.85;;;23.40;69.50;;;;;;5049093;28;20219;-55
2022/08/05 12:36:55;;;;;;;1.90;0.80;;;23.40;69.20;;;;;;5041032;28;20266;-55
2022/08/05 12:39:23;;;;;;;1.77;0.85;;;23.40;69.10;;;;;;5035035;28;20241;-55
2022/08/05 12:41:49;;;;;;;3.75;2.00;;;23.50;69.40;;;;;;5035449;28;20188;-52
2022/08/05 12:44:17;;;;;;;3.80;0.88;;;23.50;68.70;;;;;;5038729;28;20203;-54
2022/08/05 12:46:52;;;;;;;2.03;0.80;;;23.40;68.10;;;;;;5035597;28;20188;-56
2022/08/05 12:49:19;;;;;;;4.22;0.85;;;23.40;68.20;;;;;;5034923;28;20182;-55
2022/08/05 12:51:54;;;;;;;2.35;0.70;;;23.60;67.50;;;;;;5050626;28;20217;-57
2022/08/05 12:54:20;;;;;;;1.77;0.80;;;23.70;66.70;;;;;;5037331;28;20184;-53
2022/08/05 12:56:49;;;;;;;2.30;0.65;;;23.80;65.80;;;;;;5017251;28;20183;-51
2022/08/05 12:59:17;;;;;;;3.50;1.10;;;24.00;66.50;;;;;;5051890;28;20708;-55